createdAt,value
2018-12-16T00:01:04.847Z,-1.20
2018-12-16T00:03:35.210Z,-1.20
2018-12-16T00:06:06.144Z,-1.20
2018-12-16T00:08:37.261Z,-1.20
2018-12-16T00:11:08.377Z,-1.20
2018-12-16T00:13:39.302Z,-1.20
2018-12-16T00:16:08.195Z,-1.10
2018-12-16T00:18:39.466Z,-1.20
2018-12-16T00:21:10.389Z,-1.20
2018-12-16T00:23:39.445Z,-1.20
2018-12-16T00:26:10.403Z,-1.20
2018-12-16T00:28:41.673Z,-1.10
2018-12-16T00:31:10.491Z,-1.20
2018-12-16T00:33:41.491Z,-1.20
2018-12-16T00:36:12.696Z,-1.10
2018-12-16T00:38:42.015Z,-1.20
2018-12-16T00:41:13.142Z,-1.10
2018-12-16T00:43:47.162Z,-1.10
2018-12-16T00:46:15.551Z,-1.10
2018-12-16T00:48:46.829Z,-1.10
2018-12-16T00:51:17.929Z,-1.10
2018-12-16T00:53:48.467Z,-1.10
2018-12-16T00:56:19.271Z,-1.10
2018-12-16T00:58:50.457Z,-1.10
2018-12-16T01:01:21.063Z,-1.10
2018-12-16T01:03:51.830Z,-1.10
2018-12-16T01:06:20.726Z,-1.10
2018-12-16T01:08:49.832Z,-1.10
2018-12-16T01:11:20.936Z,-1.10
2018-12-16T01:13:55.013Z,-1.10
2018-12-16T01:16:29.052Z,-1.10
2018-12-16T01:18:58.240Z,-1.10
2018-12-16T01:21:29.446Z,-1.10
2018-12-16T01:23:58.423Z,-1.10
2018-12-16T01:26:27.608Z,-1.10
2018-12-16T01:28:58.552Z,-1.10
2018-12-16T01:31:29.581Z,-1.10
2018-12-16T01:34:03.432Z,-1.10
2018-12-16T01:36:33.932Z,-1.00
2018-12-16T01:39:05.166Z,-1.10
2018-12-16T01:41:35.563Z,-1.00
2018-12-16T01:44:06.857Z,-1.00
2018-12-16T01:46:35.839Z,-1.00
2018-12-16T01:49:06.984Z,-1.00
2018-12-16T01:51:36.061Z,-1.10
2018-12-16T01:54:05.343Z,-1.00
2018-12-16T01:56:39.317Z,-1.00
2018-12-16T01:59:24.721Z,-1.00
2018-12-16T02:01:56.454Z,-1.10
2018-12-16T02:04:27.686Z,-1.10
2018-12-16T02:06:58.858Z,-1.10
2018-12-16T02:09:29.979Z,-1.10
2018-12-16T02:12:03.823Z,-1.10
2018-12-16T02:14:37.817Z,-1.10
2018-12-16T02:17:09.678Z,-1.10
2018-12-16T02:19:43.877Z,-1.10
2018-12-16T02:22:15.107Z,-1.10
2018-12-16T02:24:49.141Z,-1.10
2018-12-16T02:27:23.042Z,-1.10
2018-12-16T02:29:56.233Z,-1.00
2018-12-16T02:32:25.584Z,-1.10
2018-12-16T02:35:03.545Z,-1.10
2018-12-16T02:37:32.440Z,-1.10
2018-12-16T02:40:03.252Z,-1.10
2018-12-16T02:42:34.034Z,-1.10
2018-12-16T02:45:05.193Z,-1.10
2018-12-16T02:47:36.298Z,-1.00
2018-12-16T02:50:07.342Z,-1.00
2018-12-16T02:52:38.395Z,-1.10
2018-12-16T02:55:09.243Z,-1.10
2018-12-16T02:57:38.384Z,-1.20
2018-12-16T03:00:09.599Z,-1.20
2018-12-16T03:02:41.042Z,-1.20
2018-12-16T03:05:11.704Z,-1.20
2018-12-16T03:07:42.679Z,-1.20
2018-12-16T03:10:13.645Z,-1.20
2018-12-16T03:12:47.467Z,-1.10
2018-12-16T03:15:18.654Z,-1.20
2018-12-16T03:17:49.952Z,-1.20
2018-12-16T03:20:21.086Z,-1.10
2018-12-16T03:22:52.251Z,-1.10
2018-12-16T03:25:25.696Z,-1.20
2018-12-16T03:27:54.816Z,-1.20
2018-12-16T03:30:25.817Z,-1.20
2018-12-16T03:32:59.452Z,-1.30
2018-12-16T03:35:28.839Z,-1.30
2018-12-16T03:38:02.024Z,-1.30
2018-12-16T03:40:33.517Z,-1.40
2018-12-16T03:43:07.587Z,-1.50
2018-12-16T03:45:49.183Z,-1.50
2018-12-16T03:48:20.096Z,-1.50
2018-12-16T03:50:49.563Z,-1.60
2018-12-16T03:53:20.668Z,-1.70
2018-12-16T03:55:51.739Z,-1.80
2018-12-16T03:58:22.804Z,-1.70
2018-12-16T04:00:53.962Z,-1.70
2018-12-16T04:03:24.964Z,-1.70
2018-12-16T04:05:55.951Z,-1.80
2018-12-16T04:08:25.019Z,-1.70
2018-12-16T04:10:54.258Z,-1.40
2018-12-16T04:13:25.506Z,-1.70
2018-12-16T04:15:56.546Z,-1.70
2018-12-16T04:18:27.415Z,-1.70
2018-12-16T04:21:01.063Z,-1.60
2018-12-16T04:23:31.526Z,-1.60
2018-12-16T04:26:02.571Z,-1.50
2018-12-16T04:28:33.787Z,-1.50
2018-12-16T04:31:02.654Z,-1.60
2018-12-16T04:33:33.950Z,-1.60
2018-12-16T04:36:05.040Z,-1.60
2018-12-16T04:38:36.207Z,-1.60
2018-12-16T04:41:09.878Z,-1.50
2018-12-16T04:43:40.792Z,-1.60
2018-12-16T04:46:11.772Z,-1.60
2018-12-16T04:48:42.769Z,-1.50
2018-12-16T04:51:14.082Z,-1.60
2018-12-16T04:53:45.100Z,-1.60
2018-12-16T04:56:20.886Z,-1.60
2018-12-16T04:58:52.154Z,-1.60
2018-12-16T05:01:21.394Z,-1.70
2018-12-16T05:03:52.350Z,-1.50
2018-12-16T05:06:30.313Z,-1.60
2018-12-16T05:09:01.872Z,-1.80
2018-12-16T05:11:32.582Z,-1.70
2018-12-16T05:14:10.291Z,-1.70
2018-12-16T05:16:41.562Z,-1.70
2018-12-16T05:19:12.774Z,-1.60
2018-12-16T05:21:44.070Z,-1.70
2018-12-16T05:24:15.014Z,-1.70
2018-12-16T05:26:45.905Z,-1.70
2018-12-16T05:29:17.152Z,-1.70
2018-12-16T05:31:48.220Z,-1.70
2018-12-16T05:34:17.299Z,-1.70
2018-12-16T05:36:54.995Z,-1.70
2018-12-16T05:39:25.325Z,-1.80
2018-12-16T05:41:56.655Z,-1.80
2018-12-16T05:44:29.880Z,-1.80
2018-12-16T05:47:03.049Z,-1.70
2018-12-16T05:49:32.354Z,-1.80
2018-12-16T05:52:03.545Z,-1.80
2018-12-16T05:54:36.721Z,-1.70
2018-12-16T05:57:05.806Z,-1.80
2018-12-16T05:59:36.425Z,-1.90
2018-12-16T06:02:10.482Z,-1.80
2018-12-16T06:04:39.035Z,-1.80
2018-12-16T06:07:10.216Z,-1.90
2018-12-16T06:09:40.969Z,-1.80
2018-12-16T06:12:14.576Z,-1.80
2018-12-16T06:14:45.046Z,-1.80
2018-12-16T06:17:16.078Z,-1.80
2018-12-16T06:19:47.041Z,-1.70
2018-12-16T06:22:18.055Z,-1.80
2018-12-16T06:24:47.243Z,-1.80
2018-12-16T06:27:18.785Z,-1.80
2018-12-16T06:29:50.306Z,-1.80
2018-12-16T06:32:21.396Z,-1.80
2018-12-16T06:34:52.240Z,-1.80
2018-12-16T06:37:23.425Z,-1.80
2018-12-16T06:39:54.467Z,-1.80
2018-12-16T06:42:23.488Z,-1.80
2018-12-16T06:44:54.427Z,-1.80
2018-12-16T06:47:25.736Z,-1.80
2018-12-16T06:49:57.082Z,-1.70
2018-12-16T06:52:30.586Z,-1.70
2018-12-16T06:55:17.555Z,-1.70
2018-12-16T06:57:48.726Z,-1.80
2018-12-16T07:00:19.648Z,-1.80
2018-12-16T07:02:52.674Z,-1.70
2018-12-16T07:05:23.501Z,-1.80
2018-12-16T07:07:54.386Z,-1.80
2018-12-16T07:10:25.512Z,-1.70
2018-12-16T07:12:56.781Z,-1.80
2018-12-16T07:15:27.519Z,-1.80
2018-12-16T07:18:02.509Z,-1.80
2018-12-16T07:20:35.630Z,-1.80
2018-12-16T07:23:06.493Z,-1.80
2018-12-16T07:25:37.622Z,-1.80
2018-12-16T07:28:08.430Z,-1.80
2018-12-16T07:30:39.500Z,-1.70
2018-12-16T07:33:10.420Z,-1.70
2018-12-16T07:35:51.016Z,-1.70
2018-12-16T07:38:22.418Z,-1.70
2018-12-16T07:40:53.473Z,-1.70
2018-12-16T07:43:22.134Z,-1.80
2018-12-16T07:45:55.332Z,-1.80
2018-12-16T07:48:26.744Z,-1.70
2018-12-16T07:50:57.175Z,-1.60
2018-12-16T07:53:26.150Z,-1.60
2018-12-16T07:55:57.262Z,-1.50
2018-12-16T07:58:31.276Z,-1.60
2018-12-16T08:01:02.451Z,-1.70
2018-12-16T08:03:33.823Z,-1.70
2018-12-16T08:06:04.771Z,-1.70
2018-12-16T08:08:35.990Z,-1.60
2018-12-16T08:11:05.005Z,-1.60
2018-12-16T08:13:36.089Z,-1.60
2018-12-16T08:16:07.311Z,-1.60
2018-12-16T08:18:38.269Z,-1.50
2018-12-16T08:21:09.234Z,-1.40
2018-12-16T08:23:39.604Z,-1.50
2018-12-16T08:26:10.707Z,-1.60
2018-12-16T08:28:44.491Z,-1.60
2018-12-16T08:31:14.881Z,-1.50
2018-12-16T08:33:43.932Z,-1.50
2018-12-16T08:36:14.791Z,-1.50
2018-12-16T08:38:45.553Z,-1.50
2018-12-16T08:41:14.639Z,-1.50
2018-12-16T08:43:43.863Z,-1.50
2018-12-16T08:46:12.862Z,-1.40
2018-12-16T08:48:44.135Z,-1.40
2018-12-16T08:51:15.293Z,-1.30
2018-12-16T08:53:46.109Z,-1.30
2018-12-16T08:58:49.327Z,-1.40
2018-12-16T09:01:20.493Z,-1.40
2018-12-16T09:03:49.815Z,-1.40
2018-12-16T09:06:20.707Z,-1.50
2018-12-16T09:08:52.106Z,-1.50
2018-12-16T09:11:32.085Z,-1.40
2018-12-16T09:14:02.768Z,-1.40
2018-12-16T09:16:33.830Z,-1.50
2018-12-16T09:19:08.099Z,-1.40
2018-12-16T09:21:39.125Z,-1.30
2018-12-16T09:24:10.185Z,-1.30
2018-12-16T09:26:41.036Z,-1.20
2018-12-16T09:29:14.816Z,-1.20
2018-12-16T09:31:43.717Z,-1.30
2018-12-16T09:34:14.779Z,-1.10
2018-12-16T09:36:45.869Z,-1.10
2018-12-16T09:39:16.874Z,-1.00
2018-12-16T09:41:47.629Z,-1.00
2018-12-16T09:44:18.606Z,-0.90
2018-12-16T09:46:49.900Z,-1.10
2018-12-16T09:49:21.197Z,-1.00
2018-12-16T09:51:56.150Z,-1.00
2018-12-16T09:54:27.416Z,-1.00
2018-12-16T09:56:58.237Z,-0.90
2018-12-16T09:59:27.532Z,-0.90
2018-12-16T10:01:58.417Z,-0.80
2018-12-16T10:04:29.614Z,-0.70
2018-12-16T10:07:00.592Z,-1.00
2018-12-16T10:09:31.532Z,-1.10
2018-12-16T10:12:05.178Z,-1.10
2018-12-16T10:14:39.085Z,-1.00
2018-12-16T10:17:07.673Z,-1.00
2018-12-16T10:19:38.056Z,-1.10
2018-12-16T10:22:09.594Z,-1.10
2018-12-16T10:24:40.334Z,-1.00
2018-12-16T10:27:14.098Z,-0.80
2018-12-16T10:29:48.212Z,-0.80
2018-12-16T10:32:18.886Z,-0.70
2018-12-16T10:34:47.979Z,-0.80
2018-12-16T10:37:17.256Z,-0.80
2018-12-16T10:39:48.442Z,-0.90
2018-12-16T10:42:23.058Z,-0.80
2018-12-16T10:44:54.507Z,-0.70
2018-12-16T10:47:28.636Z,-0.70
2018-12-16T10:49:57.010Z,-0.70
2018-12-16T10:52:28.046Z,-0.70
2018-12-16T10:54:58.529Z,-0.80
2018-12-16T10:57:27.333Z,-0.80
2018-12-16T10:59:56.345Z,-0.70
2018-12-16T11:02:30.085Z,-0.90
2018-12-16T11:05:01.171Z,-0.80
2018-12-16T11:07:34.877Z,-0.70
2018-12-16T11:10:05.714Z,-0.60
2018-12-16T11:12:36.775Z,-0.80
2018-12-16T11:15:08.502Z,-0.70
2018-12-16T11:17:39.278Z,-0.70
2018-12-16T11:20:10.337Z,-0.60
2018-12-16T11:22:41.377Z,-0.70
2018-12-16T11:25:12.712Z,-0.60
2018-12-16T11:27:43.552Z,-0.60
2018-12-16T11:30:14.830Z,-0.50
2018-12-16T11:32:44.036Z,-0.60
2018-12-16T11:35:25.421Z,-0.60
2018-12-16T11:37:54.183Z,-0.50
2018-12-16T11:40:27.777Z,-0.50
2018-12-16T11:42:57.163Z,-0.40
2018-12-16T11:45:27.810Z,-0.40
2018-12-16T11:47:57.129Z,-0.30
2018-12-16T11:50:26.031Z,-0.20
2018-12-16T11:53:01.685Z,-0.20
2018-12-16T11:55:33.069Z,-0.20
2018-12-16T12:00:44.865Z,-0.30
2018-12-16T12:03:15.514Z,-0.40
2018-12-16T12:05:46.489Z,-0.30
2018-12-16T12:08:20.368Z,-0.30
2018-12-16T12:10:56.365Z,-0.30
2018-12-16T13:30:32.582Z,0.00
2018-12-16T13:33:03.080Z,0.10
2018-12-16T13:35:32.252Z,0.10
2018-12-16T13:38:01.301Z,0.00
2018-12-16T13:40:32.349Z,0.00
2018-12-16T13:43:01.391Z,0.00
2018-12-16T13:45:32.312Z,0.10
2018-12-16T13:48:01.084Z,0.10
2018-12-16T13:50:36.637Z,0.10
2018-12-16T13:53:11.729Z,0.20
2018-12-16T13:55:42.937Z,0.20
2018-12-16T13:58:16.834Z,0.30
2018-12-16T14:00:45.780Z,0.20
2018-12-16T14:03:14.625Z,0.20
2018-12-16T14:05:48.612Z,0.30
2018-12-16T14:08:19.599Z,0.30
2018-12-16T14:10:54.304Z,0.40
2018-12-16T14:13:25.628Z,0.40
2018-12-16T14:15:56.679Z,0.30
2018-12-16T14:18:28.040Z,0.40
2018-12-16T14:20:56.978Z,0.30
2018-12-16T14:23:27.797Z,0.30
2018-12-16T14:25:58.875Z,0.40
2018-12-16T14:28:27.816Z,0.40
2018-12-16T14:30:58.365Z,0.40
2018-12-16T14:33:27.472Z,0.40
2018-12-16T14:35:56.521Z,0.40
2018-12-16T14:38:30.561Z,0.40
2018-12-16T14:40:59.603Z,0.40
2018-12-16T14:43:30.763Z,0.40
2018-12-16T14:45:59.560Z,0.50
2018-12-16T14:48:28.566Z,0.40
2018-12-16T14:50:59.934Z,0.40
2018-12-16T14:53:40.340Z,0.40
2018-12-16T14:56:13.549Z,0.40
2018-12-16T14:58:47.467Z,0.40
2018-12-16T15:01:17.829Z,0.40
2018-12-16T15:03:49.022Z,0.40
2018-12-16T15:06:20.321Z,0.50
2018-12-16T15:08:49.245Z,0.40
2018-12-16T15:11:24.235Z,0.40
2018-12-16T15:13:53.426Z,0.50
2018-12-16T15:16:26.650Z,0.50
2018-12-16T15:18:57.132Z,0.50
2018-12-16T15:21:31.850Z,0.50
2018-12-16T15:24:03.038Z,0.50
2018-12-16T15:26:34.197Z,0.60
2018-12-16T15:29:05.350Z,0.60
2018-12-16T15:34:08.036Z,0.50
2018-12-16T15:36:39.193Z,0.60
2018-12-16T15:39:10.445Z,0.60
2018-12-16T15:41:41.685Z,0.60
2018-12-16T15:44:10.744Z,0.60
2018-12-16T15:46:48.323Z,0.60
2018-12-16T15:49:28.498Z,0.60
2018-12-16T15:52:01.683Z,0.60
2018-12-16T15:54:32.925Z,0.60
2018-12-16T15:57:07.581Z,0.60
2018-12-16T15:59:41.632Z,0.60
2018-12-16T16:02:10.832Z,0.60
2018-12-16T16:04:41.839Z,0.60
2018-12-16T16:07:12.661Z,0.60
2018-12-16T16:09:46.371Z,0.60
2018-12-16T16:12:17.684Z,0.60
2018-12-16T16:14:48.652Z,0.50
2018-12-16T16:17:19.984Z,0.50
2018-12-16T16:19:50.909Z,0.40
2018-12-16T16:22:21.337Z,0.40
2018-12-16T16:24:52.485Z,0.40
2018-12-16T16:27:22.862Z,0.40
2018-12-16T16:29:56.007Z,0.40
2018-12-16T16:32:29.764Z,0.30
2018-12-16T16:35:01.943Z,0.40
2018-12-16T16:37:32.603Z,0.40
2018-12-16T16:40:05.130Z,0.50
2018-12-16T16:42:36.108Z,0.50
2018-12-16T16:45:09.844Z,0.60
2018-12-16T16:47:39.096Z,0.60
2018-12-16T16:50:10.226Z,0.60
2018-12-16T16:52:41.303Z,0.60
2018-12-16T16:55:12.019Z,0.60
2018-12-16T16:57:43.260Z,0.60
2018-12-16T17:00:14.275Z,0.70
2018-12-16T17:02:47.942Z,0.70
2018-12-16T17:08:17.725Z,0.60
2018-12-16T17:10:51.937Z,0.60
2018-12-16T17:13:22.989Z,0.60
2018-12-16T17:15:53.929Z,0.50
2018-12-16T17:18:27.848Z,0.50
2018-12-16T17:23:55.613Z,0.50
2018-12-16T17:26:30.222Z,0.50
2018-12-16T17:29:00.817Z,0.50
2018-12-16T17:31:32.059Z,0.50
2018-12-16T17:34:09.469Z,0.50
2018-12-16T17:36:38.835Z,0.50
2018-12-16T17:39:09.619Z,0.60
2018-12-16T17:41:40.741Z,0.60
2018-12-16T17:44:11.546Z,0.60
2018-12-16T17:49:38.568Z,0.70
2018-12-16T17:52:07.729Z,0.70
2018-12-16T17:54:38.926Z,0.70
2018-12-16T17:57:10.001Z,0.70
2018-12-16T17:59:43.943Z,0.70
2018-12-16T18:02:14.753Z,0.70
2018-12-16T18:04:45.941Z,0.80
2018-12-16T18:07:14.850Z,0.80
2018-12-16T18:09:42.282Z,0.80
2018-12-16T18:12:09.896Z,0.90
2018-12-16T18:14:37.974Z,0.90
2018-12-16T18:17:06.915Z,0.90
2018-12-16T18:19:34.383Z,0.90
2018-12-16T18:22:01.916Z,0.90
2018-12-16T18:24:29.602Z,0.90
2018-12-16T18:26:57.107Z,0.90
2018-12-16T18:29:24.546Z,0.90
2018-12-16T18:31:52.023Z,0.90
2018-12-16T18:34:19.511Z,0.90
2018-12-16T18:36:47.006Z,0.90
2018-12-16T18:39:14.522Z,0.90
2018-12-16T18:41:42.179Z,0.90
2018-12-16T18:44:09.826Z,0.90
2018-12-16T18:46:37.321Z,1.00
2018-12-16T18:49:04.875Z,1.00
2018-12-16T18:51:32.406Z,1.00
2018-12-16T18:54:00.029Z,1.00
2018-12-16T18:56:27.557Z,1.10
2018-12-16T18:58:55.063Z,1.00
2018-12-16T19:01:22.607Z,1.00
2018-12-16T19:03:50.415Z,1.10
2018-12-16T19:06:17.939Z,1.10
2018-12-16T19:08:45.568Z,1.10
2018-12-16T19:11:13.151Z,1.10
2018-12-16T19:13:40.817Z,1.10
2018-12-16T19:16:08.292Z,1.10
2018-12-16T19:18:36.042Z,1.10
2018-12-16T19:21:04.066Z,1.20
2018-12-16T19:23:31.583Z,1.30
2018-12-16T19:25:59.071Z,1.20
2018-12-16T19:28:26.683Z,1.20
2018-12-16T19:30:54.356Z,1.30
2018-12-16T19:33:21.846Z,1.30
2018-12-16T19:35:49.494Z,1.30
2018-12-16T19:38:16.956Z,1.30
2018-12-16T19:40:44.474Z,1.30
2018-12-16T19:43:11.984Z,1.30
2018-12-16T19:45:42.649Z,1.30
2018-12-16T19:48:13.413Z,1.30
2018-12-16T19:50:44.447Z,1.30
2018-12-16T19:53:15.354Z,1.30
2018-12-16T19:55:44.570Z,1.30
2018-12-16T19:58:15.669Z,1.30
2018-12-16T20:00:46.796Z,1.30
2018-12-16T20:03:15.868Z,1.40
2018-12-16T20:05:52.533Z,1.40
2018-12-16T20:08:29.823Z,1.30
2018-12-16T20:10:58.266Z,1.30
2018-12-16T20:13:29.283Z,1.30
2018-12-16T20:16:04.951Z,1.30
2018-12-16T20:18:36.127Z,1.30
2018-12-16T20:21:06.890Z,1.30
2018-12-16T20:23:37.918Z,1.30
2018-12-16T20:26:09.096Z,1.30
2018-12-16T20:28:40.188Z,1.30
2018-12-16T20:31:11.441Z,1.30
2018-12-16T20:33:42.823Z,1.40
2018-12-16T20:36:14.167Z,1.30
2018-12-16T20:41:17.375Z,1.40
2018-12-16T20:43:48.564Z,1.40
2018-12-16T20:46:19.482Z,1.40
2018-12-16T20:48:48.502Z,1.40
2018-12-16T20:51:19.629Z,1.40
2018-12-16T20:53:48.869Z,1.40
2018-12-16T20:56:24.531Z,1.40
2018-12-16T20:58:57.705Z,1.40
2018-12-16T21:01:28.108Z,1.40
2018-12-16T21:03:59.336Z,1.40
2018-12-16T21:06:28.270Z,1.50
2018-12-16T21:08:59.275Z,1.50
2018-12-16T21:14:38.585Z,1.50
2018-12-16T21:17:13.514Z,1.50
2018-12-16T21:19:44.108Z,1.50
2018-12-16T21:22:15.087Z,1.50
2018-12-16T21:24:52.826Z,1.60
2018-12-16T21:30:26.010Z,1.50
2018-12-16T21:41:58.957Z,1.50
2018-12-16T21:44:32.796Z,1.50
2018-12-16T21:47:06.646Z,1.50
2018-12-16T21:49:36.003Z,1.50
2018-12-16T21:52:04.966Z,1.50
2018-12-16T21:54:36.063Z,1.50
2018-12-16T21:57:07.100Z,1.50
2018-12-16T22:02:42.039Z,1.50
2018-12-16T22:08:15.702Z,1.60
2018-12-16T22:10:46.659Z,1.50
2018-12-16T22:16:23.511Z,1.40
2018-12-16T22:18:56.801Z,1.40
2018-12-16T22:21:27.858Z,1.40
2018-12-16T22:23:55.356Z,1.40
2018-12-16T22:26:22.792Z,1.40
2018-12-16T22:28:50.230Z,1.40
2018-12-16T22:31:18.624Z,1.40
2018-12-16T22:33:46.061Z,1.40
2018-12-16T22:36:13.503Z,1.40
2018-12-16T22:38:40.951Z,1.40
2018-12-16T22:41:08.410Z,1.30
2018-12-16T22:43:35.886Z,1.30
2018-12-16T22:46:03.430Z,1.30
2018-12-16T22:48:30.875Z,1.40
2018-12-16T22:50:58.391Z,1.40
2018-12-16T22:53:25.831Z,1.30
2018-12-16T22:55:53.280Z,1.20
2018-12-16T22:58:20.716Z,1.20
2018-12-16T23:00:54.034Z,1.10
2018-12-16T23:03:21.466Z,1.10
2018-12-16T23:05:49.004Z,1.00
2018-12-16T23:08:16.440Z,1.00
2018-12-16T23:10:43.879Z,1.00
2018-12-16T23:13:11.314Z,1.00
2018-12-16T23:15:38.797Z,1.00
2018-12-16T23:18:06.270Z,0.90
2018-12-16T23:20:33.789Z,0.80
2018-12-16T23:23:01.247Z,0.70
2018-12-16T23:25:28.688Z,0.60
2018-12-16T23:27:56.119Z,0.50
2018-12-16T23:30:23.555Z,0.40
2018-12-16T23:32:56.987Z,0.40
2018-12-16T23:35:24.448Z,0.20
2018-12-16T23:37:51.871Z,0.20
2018-12-16T23:40:19.307Z,0.10
2018-12-16T23:42:46.747Z,0.00
2018-12-16T23:45:14.221Z,-0.20
2018-12-16T23:47:41.699Z,-0.20
2018-12-16T23:50:09.222Z,-0.30
2018-12-16T23:52:36.692Z,-0.30
2018-12-16T23:55:10.272Z,-0.40
2018-12-16T23:57:37.713Z,-0.40
